Time;durP1;ratioP1;P1;durP2;ratioP2;P2;SDS_P1;SDS_P2;PMS_P1;PMS_P2;Temp;Humidity;BMP_temperature;BMP_pressure;BME280_temperature;BME280_humidity;BME280_pressure;Samples;Min_cycle;Max_cycle;Signal;HPM_P1;HPM_P2
2022/06/07 00:00:58;;;;;;;3.83;1.83;;;22.70;48.30;;;;;;5055316;28;20035;-70
2022/06/07 00:03:25;;;;;;;3.72;1.67;;;22.70;48.40;;;;;;5055752;28;20032;-69
2022/06/07 00:05:50;;;;;;;1.70;1.60;;;22.70;48.60;;;;;;5055350;28;20127;-69
2022/06/07 00:08:18;;;;;;;1.98;1.75;;;22.60;48.60;;;;;;5073681;28;20459;-69
2022/06/07 00:10:45;;;;;;;2.25;1.80;;;22.50;48.80;;;;;;5072939;28;20033;-69
2022/06/07 00:13:11;;;;;;;2.22;2.00;;;22.50;48.90;;;;;;5055729;28;20078;-68
2022/06/07 00:15:38;;;;;;;1.95;1.80;;;22.40;49.10;;;;;;5073123;28;20028;-68
2022/06/07 00:18:04;;;;;;;3.50;1.85;;;22.40;49.30;;;;;;5073224;28;20025;-69
2022/06/07 00:20:30;;;;;;;1.80;1.70;;;22.30;49.30;;;;;;5072938;28;20025;-69
2022/06/07 00:22:56;;;;;;;2.00;1.80;;;22.30;49.50;;;;;;5055219;28;20024;-69
2022/06/07 00:25:22;;;;;;;2.10;1.90;;;22.20;49.50;;;;;;5072738;28;20032;-70
2022/06/07 00:27:48;;;;;;;2.05;1.85;;;22.30;49.50;;;;;;5073381;28;20115;-67
2022/06/07 00:30:14;;;;;;;2.20;2.00;;;22.30;49.50;;;;;;5073520;28;20374;-68
2022/06/07 00:32:42;;;;;;;1.92;1.80;;;22.30;49.50;;;;;;5072851;28;20103;-68
2022/06/07 00:35:09;;;;;;;2.28;1.70;;;22.30;49.50;;;;;;5072863;28;20036;-69
2022/06/07 00:37:34;;;;;;;3.03;1.65;;;22.30;49.40;;;;;;5074133;28;20041;-69
2022/06/07 00:40:00;;;;;;;3.65;1.73;;;22.30;49.40;;;;;;5058581;28;20032;-69
2022/06/07 00:42:26;;;;;;;2.00;1.75;;;22.30;49.50;;;;;;5058706;28;20074;-69
2022/06/07 00:44:51;;;;;;;1.92;1.73;;;22.30;49.50;;;;;;5076298;28;20029;-69
2022/06/07 00:47:23;;;;;;;1.70;1.60;;;22.40;49.50;;;;;;5076513;28;20351;-69
2022/06/07 00:50:04;;;;;;;1.90;1.80;;;22.40;49.50;;;;;;5076389;28;20399;-70
2022/06/07 00:52:32;;;;;;;2.97;1.88;;;22.40;49.70;;;;;;5076591;28;20028;-70
2022/06/07 00:54:58;;;;;;;3.38;1.67;;;22.40;49.40;;;;;;5058342;28;20363;-70
2022/06/07 00:57:25;;;;;;;2.58;1.60;;;22.40;49.50;;;;;;5076200;28;20036;-69
2022/06/07 00:59:51;;;;;;;1.63;1.50;;;22.40;49.50;;;;;;5058292;28;20042;-69
2022/06/07 01:02:18;;;;;;;2.50;1.83;;;22.40;49.50;;;;;;5075741;28;20069;-68
2022/06/07 01:04:44;;;;;;;2.20;1.75;;;22.40;49.60;;;;;;5057891;28;20082;-69
2022/06/07 01:12:38;;;;;;;2.80;2.05;;;22.40;49.70;;;;;;5076207;28;20078;-69
2022/06/07 01:15:04;;;;;;;2.17;1.75;;;22.40;49.70;;;;;;5057952;28;20032;-70
2022/06/07 01:17:30;;;;;;;1.95;1.73;;;22.40;49.70;;;;;;5075540;28;20433;-69
2022/06/07 01:19:55;;;;;;;2.00;1.80;;;22.40;49.80;;;;;;5076062;28;20028;-69
2022/06/07 01:22:21;;;;;;;2.72;1.63;;;22.40;49.90;;;;;;5076031;28;20042;-69
2022/06/07 01:24:47;;;;;;;5.43;1.90;;;22.30;49.90;;;;;;5075597;28;20036;-69
2022/06/07 01:27:13;;;;;;;1.77;1.67;;;22.30;50.00;;;;;;5075646;28;20386;-70
2022/06/07 01:29:42;;;;;;;1.85;1.70;;;22.30;50.60;;;;;;5075487;28;20033;-69
2022/06/07 01:32:08;;;;;;;1.73;1.63;;;22.30;50.10;;;;;;5057640;28;20032;-69
2022/06/07 01:34:33;;;;;;;2.40;1.85;;;22.30;50.20;;;;;;5075397;28;20482;-67
2022/06/07 01:37:00;;;;;;;3.60;2.13;;;22.30;50.20;;;;;;5075547;28;20139;-66
2022/06/07 01:42:14;;;;;;;2.00;1.80;;;22.20;50.30;;;;;;5075668;28;20035;-68
2022/06/07 01:44:43;;;;;;;2.00;1.80;;;22.20;50.30;;;;;;5075240;28;20037;-67
2022/06/07 01:47:12;;;;;;;2.55;2.05;;;22.10;50.40;;;;;;5075775;28;20093;-68
2022/06/07 01:49:38;;;;;;;2.38;1.90;;;22.10;50.50;;;;;;5075197;28;20025;-68
2022/06/07 01:52:06;;;;;;;3.67;1.80;;;22.10;50.50;;;;;;5075173;28;20033;-68
2022/06/07 01:54:32;;;;;;;3.58;2.10;;;22.10;50.50;;;;;;5075117;28;20445;-69
2022/06/07 01:56:58;;;;;;;2.88;2.13;;;22.10;51.20;;;;;;5056917;28;20025;-69
2022/06/07 01:59:24;;;;;;;2.10;1.90;;;22.10;50.70;;;;;;5057134;28;20380;-68
2022/06/07 02:01:51;;;;;;;2.20;2.00;;;22.10;50.70;;;;;;5074962;28;20099;-68
2022/06/07 02:04:17;;;;;;;1.90;1.70;;;22.10;50.80;;;;;;5056962;28;20024;-68
2022/06/07 02:06:43;;;;;;;2.10;1.90;;;22.10;50.80;;;;;;5074805;28;20052;-69
2022/06/07 02:09:10;;;;;;;2.33;1.83;;;22.10;50.90;;;;;;5074890;28;20039;-69
2022/06/07 02:11:38;;;;;;;4.30;2.00;;;22.10;51.00;;;;;;5056875;28;20035;-72
2022/06/07 02:14:05;;;;;;;3.17;2.25;;;22.10;51.00;;;;;;5074829;28;20099;-69
2022/06/07 02:16:31;;;;;;;2.22;1.90;;;22.10;51.10;;;;;;5074689;28;20033;-69
2022/06/07 02:18:57;;;;;;;2.17;1.95;;;22.10;51.10;;;;;;5056751;28;20049;-70
2022/06/07 02:21:23;;;;;;;2.00;1.90;;;22.10;51.10;;;;;;5074545;28;20036;-70
2022/06/07 02:23:50;;;;;;;2.20;2.00;;;22.10;51.10;;;;;;5074317;28;20028;-70
2022/06/07 02:26:29;;;;;;;2.78;2.00;;;22.10;51.30;;;;;;5074515;28;20086;-70
2022/06/07 02:29:05;;;;;;;2.10;1.77;;;22.10;51.30;;;;;;5074768;28;20128;-69
2022/06/07 02:31:33;;;;;;;2.13;1.92;;;22.10;51.30;;;;;;5056366;28;20056;-68
2022/06/07 02:34:01;;;;;;;2.35;2.10;;;22.10;51.30;;;;;;5056546;28;20025;-69
2022/06/07 02:36:28;;;;;;;2.25;2.00;;;22.00;51.40;;;;;;5056214;28;20432;-69
2022/06/07 02:38:54;;;;;;;3.13;2.10;;;22.00;51.60;;;;;;5074405;28;20129;-69
2022/06/07 02:41:22;;;;;;;2.55;2.15;;;22.00;51.60;;;;;;5074240;28;20060;-69
2022/06/07 02:43:48;;;;;;;3.33;2.10;;;22.00;51.70;;;;;;5039929;28;20028;-69
2022/06/07 02:46:14;;;;;;;2.30;2.10;;;22.00;51.70;;;;;;5056193;28;20036;-69
2022/06/07 02:48:40;;;;;;;2.38;2.00;;;22.00;51.60;;;;;;5074113;28;20033;-69
2022/06/07 02:51:06;;;;;;;2.80;2.13;;;22.10;51.70;;;;;;5074346;28;20163;-69
2022/06/07 02:53:32;;;;;;;2.40;2.20;;;22.10;51.70;;;;;;5074047;28;20039;-68
2022/06/07 02:55:57;;;;;;;4.63;2.20;;;22.10;51.70;;;;;;5056124;28;20029;-69
2022/06/07 02:58:24;;;;;;;3.08;2.35;;;22.10;51.80;;;;;;5074044;28;20021;-69
2022/06/07 03:00:50;;;;;;;2.47;2.10;;;22.20;51.80;;;;;;5073542;28;20052;-69
2022/06/07 03:03:16;;;;;;;4.30;2.28;;;22.20;51.80;;;;;;5073991;28;20063;-69
2022/06/07 03:05:42;;;;;;;2.47;2.28;;;22.20;51.90;;;;;;5055631;28;20541;-69
2022/06/07 03:08:08;;;;;;;3.20;2.60;;;22.20;51.90;;;;;;5074584;28;20075;-69
2022/06/07 03:10:34;;;;;;;2.65;2.45;;;22.20;52.00;;;;;;5074081;28;20120;-71
2022/06/07 03:12:59;;;;;;;3.05;2.47;;;22.20;52.10;;;;;;5073854;28;20569;-69
2022/06/07 03:15:25;;;;;;;3.20;2.50;;;22.20;52.10;;;;;;5073748;28;20032;-69
2022/06/07 03:17:51;;;;;;;2.65;2.25;;;22.20;52.20;;;;;;5073650;28;20028;-69
2022/06/07 03:20:16;;;;;;;3.58;2.22;;;22.20;52.30;;;;;;5073766;28;20056;-68
2022/06/07 03:22:42;;;;;;;2.47;2.03;;;22.30;52.30;;;;;;5073661;28;20031;-69
2022/06/07 03:25:10;;;;;;;2.45;2.22;;;22.30;52.30;;;;;;5073609;28;20094;-69
2022/06/07 03:27:37;;;;;;;4.22;2.20;;;22.30;52.40;;;;;;5074018;28;20103;-69
2022/06/07 03:30:06;;;;;;;4.82;2.40;;;22.40;52.40;;;;;;5073684;28;20032;-69
2022/06/07 03:32:32;;;;;;;2.88;2.30;;;22.40;52.40;;;;;;5055627;28;20020;-71
2022/06/07 03:34:58;;;;;;;2.60;2.30;;;22.40;52.40;;;;;;5073563;28;20071;-70
2022/06/07 03:37:24;;;;;;;2.85;2.25;;;22.40;52.40;;;;;;5055644;28;20056;-70
2022/06/07 03:39:51;;;;;;;3.05;2.42;;;22.50;52.50;;;;;;5073652;28;20056;-68
2022/06/07 03:42:17;;;;;;;2.50;2.20;;;22.50;52.50;;;;;;5073453;28;20025;-68
2022/06/07 03:44:48;;;;;;;2.90;2.10;;;22.50;52.60;;;;;;5055169;28;20039;-69
2022/06/07 03:47:16;;;;;;;2.70;2.25;;;22.50;52.60;;;;;;5073529;28;20064;-68
2022/06/07 03:49:42;;;;;;;3.13;2.35;;;22.50;52.70;;;;;;5073235;28;20035;-70
2022/06/07 03:52:07;;;;;;;2.67;2.33;;;22.50;52.90;;;;;;5073463;28;20025;-70
2022/06/07 03:54:33;;;;;;;2.78;2.30;;;22.50;53.00;;;;;;5073579;28;20036;-69
2022/06/07 03:56:59;;;;;;;3.33;2.50;;;22.50;53.10;;;;;;5055658;28;20029;-69
2022/06/07 03:59:27;;;;;;;3.75;2.30;;;22.50;53.40;;;;;;5073477;28;20102;-69
2022/06/07 04:01:53;;;;;;;3.20;2.38;;;22.50;53.80;;;;;;5073228;28;20486;-70
2022/06/07 04:04:19;;;;;;;3.35;2.40;;;22.50;54.20;;;;;;5055202;28;20058;-68
2022/06/07 04:08:10;;;;;;;2.60;2.40;;;22.40;53.90;;;;;;5073181;28;20031;-68
2022/06/07 04:09:39;;;;;;;3.33;2.40;;;22.40;54.10;;;;;;5073136;28;20039;-69
2022/06/07 04:12:08;;;;;;;3.08;2.50;;;22.40;54.20;;;;;;5051778;28;20428;-68
2022/06/07 04:14:42;;;;;;;2.92;2.53;;;22.40;54.40;;;;;;5058826;28;20036;-71
2022/06/07 04:17:09;;;;;;;2.60;2.25;;;22.40;54.60;;;;;;5076216;28;20032;-69
2022/06/07 04:19:37;;;;;;;3.33;2.30;;;22.40;54.60;;;;;;5076887;28;20423;-68
2022/06/07 04:22:03;;;;;;;3.72;2.30;;;22.40;54.90;;;;;;5055921;28;20029;-70
2022/06/07 04:24:30;;;;;;;2.60;2.30;;;22.40;54.90;;;;;;5065713;28;20033;-69
2022/06/07 04:26:56;;;;;;;2.65;2.20;;;22.40;55.00;;;;;;5056639;28;20111;-69
2022/06/07 04:29:22;;;;;;;2.92;2.30;;;22.40;55.00;;;;;;5054700;28;20515;-69
2022/06/07 04:31:48;;;;;;;2.38;2.10;;;22.50;55.00;;;;;;5076544;28;20024;-68
2022/06/07 04:34:14;;;;;;;2.50;2.22;;;22.50;54.80;;;;;;5076575;28;20025;-68
2022/06/07 04:36:41;;;;;;;2.63;2.35;;;22.50;54.90;;;;;;5076560;28;20028;-68
2022/06/07 04:39:07;;;;;;;3.13;2.22;;;22.50;55.00;;;;;;5076505;28;20052;-68
2022/06/07 04:41:33;;;;;;;2.38;2.17;;;22.50;55.00;;;;;;5069290;28;20035;-67
2022/06/07 04:43:59;;;;;;;3.53;1.95;;;22.60;55.20;;;;;;5059123;28;20033;-68
2022/06/07 04:46:26;;;;;;;2.88;2.00;;;22.60;55.10;;;;;;5038351;28;20033;-69
2022/06/07 04:48:52;;;;;;;3.40;1.70;;;22.70;55.00;;;;;;5038150;28;20120;-67
2022/06/07 04:51:24;;;;;;;1.80;1.65;;;22.70;54.90;;;;;;5038208;28;20029;-67
2022/06/07 04:53:51;;;;;;;2.95;2.00;;;22.80;54.80;;;;;;5053080;28;20025;-67
2022/06/07 04:56:21;;;;;;;2.40;2.13;;;22.80;54.80;;;;;;5058216;28;20024;-68
2022/06/07 04:58:47;;;;;;;2.90;1.95;;;22.80;54.70;;;;;;5058181;28;20028;-67
2022/06/07 05:01:35;;;;;;;2.40;1.98;;;22.70;54.60;;;;;;5057006;28;20074;-68
2022/06/07 05:04:01;;;;;;;1.70;1.60;;;22.80;55.00;;;;;;5075911;28;20021;-68
2022/06/07 05:06:36;;;;;;;2.50;1.88;;;22.80;54.60;;;;;;5057100;28;20029;-68
2022/06/07 05:09:10;;;;;;;2.30;1.77;;;22.90;54.60;;;;;;5074733;28;20028;-68
2022/06/07 05:11:36;;;;;;;2.65;1.90;;;22.90;54.40;;;;;;5057852;28;20035;-67
2022/06/07 05:14:03;;;;;;;2.08;1.90;;;23.00;54.30;;;;;;5076005;28;20111;-68
2022/06/07 05:16:30;;;;;;;2.33;1.60;;;23.00;54.20;;;;;;5057833;28;20056;-68
2022/06/07 05:18:56;;;;;;;2.10;1.80;;;23.10;54.10;;;;;;5075772;28;20028;-68
2022/06/07 05:21:23;;;;;;;3.75;1.88;;;23.10;54.10;;;;;;5057729;28;20055;-71
2022/06/07 05:23:50;;;;;;;2.10;1.80;;;23.20;54.00;;;;;;5075137;28;20040;-67
2022/06/07 05:26:29;;;;;;;1.98;1.70;;;23.20;53.90;;;;;;5057609;28;20470;-67
2022/06/07 05:28:56;;;;;;;4.28;2.10;;;23.30;53.80;;;;;;5075576;28;20481;-68
2022/06/07 05:31:22;;;;;;;2.00;1.70;;;23.30;53.70;;;;;;5075350;28;20024;-69
2022/06/07 05:33:49;;;;;;;2.35;2.00;;;23.30;53.50;;;;;;5074993;28;20035;-67
2022/06/07 05:36:15;;;;;;;4.15;1.75;;;23.40;53.50;;;;;;5057338;28;20032;-68
2022/06/07 05:38:41;;;;;;;1.90;1.67;;;23.40;53.30;;;;;;5075155;28;20040;-69
2022/06/07 05:41:07;;;;;;;1.85;1.70;;;23.40;53.10;;;;;;5075192;28;20032;-67
2022/06/07 05:43:33;;;;;;;1.75;1.65;;;23.50;53.10;;;;;;5075237;28;20473;-67
2022/06/07 05:46:00;;;;;;;1.75;1.45;;;23.50;53.10;;;;;;5075073;28;20036;-67
2022/06/07 05:48:26;;;;;;;1.73;1.58;;;23.60;53.00;;;;;;5075197;28;20035;-68
2022/06/07 05:50:52;;;;;;;2.67;1.80;;;23.60;52.90;;;;;;5074963;28;20100;-69
2022/06/07 05:53:19;;;;;;;2.65;1.60;;;23.70;52.80;;;;;;5074988;28;20473;-68
2022/06/07 05:55:45;;;;;;;1.95;1.75;;;23.70;52.60;;;;;;5075094;28;20035;-68
2022/06/07 05:58:11;;;;;;;3.08;1.80;;;23.70;52.40;;;;;;5075393;28;20024;-68
2022/06/07 06:00:38;;;;;;;1.70;1.60;;;23.70;52.40;;;;;;5074636;28;20112;-68
2022/06/07 06:03:05;;;;;;;1.80;1.70;;;23.70;52.30;;;;;;5056951;28;20025;-69
2022/06/07 06:05:33;;;;;;;2.67;1.63;;;23.70;52.20;;;;;;5074890;28;20032;-68
2022/06/07 06:10:43;;;;;;;2.55;1.80;;;23.80;52.00;;;;;;5075014;28;20097;-69
2022/06/07 06:13:09;;;;;;;1.70;1.60;;;23.80;51.90;;;;;;5074410;28;20421;-68
2022/06/07 06:15:34;;;;;;;2.35;1.58;;;23.90;51.80;;;;;;5074712;28;20028;-69
2022/06/07 06:18:05;;;;;;;2.55;1.50;;;23.90;51.70;;;;;;5057000;28;20029;-68
2022/06/07 06:20:31;;;;;;;1.45;1.30;;;23.90;51.60;;;;;;5074478;28;20115;-68
2022/06/07 06:22:57;;;;;;;1.75;1.35;;;23.90;51.50;;;;;;5074268;28;20426;-68
2022/06/07 06:25:23;;;;;;;1.77;1.42;;;24.00;51.30;;;;;;5074303;28;20040;-67
2022/06/07 06:27:49;;;;;;;1.98;1.48;;;24.00;51.10;;;;;;5074349;28;20489;-67
2022/06/07 06:30:15;;;;;;;3.30;2.60;;;24.00;51.00;;;;;;5074446;28;20377;-69
2022/06/07 06:32:40;;;;;;;2.78;2.20;;;24.00;50.70;;;;;;5074727;28;20032;-68
2022/06/07 06:35:06;;;;;;;2.05;1.88;;;24.10;50.70;;;;;;5073705;28;20459;-68
2022/06/07 06:37:32;;;;;;;2.05;1.88;;;24.10;50.70;;;;;;5073925;28;20035;-69
2022/06/07 06:39:58;;;;;;;1.63;1.42;;;24.10;50.60;;;;;;5056239;28;20028;-68
2022/06/07 06:42:23;;;;;;;2.13;1.58;;;24.10;50.50;;;;;;5073812;28;20032;-68
2022/06/07 06:44:49;;;;;;;4.45;3.35;;;24.10;50.50;;;;;;5074235;28;20044;-68
2022/06/07 06:47:15;;;;;;;3.60;2.90;;;24.20;50.50;;;;;;5074013;28;20024;-68
2022/06/07 06:49:41;;;;;;;3.97;2.95;;;24.10;50.30;;;;;;5074129;28;20036;-68
2022/06/07 06:52:10;;;;;;;3.70;2.67;;;24.10;50.30;;;;;;5073944;28;20099;-68
2022/06/07 06:54:37;;;;;;;4.53;3.22;;;24.20;50.20;;;;;;5073713;28;20024;-67
2022/06/07 06:57:04;;;;;;;3.70;1.95;;;24.20;50.20;;;;;;5073896;28;20032;-67
2022/06/07 06:59:31;;;;;;;3.03;2.10;;;24.20;49.90;;;;;;5073841;28;20031;-67
2022/06/07 07:01:57;;;;;;;2.00;1.52;;;24.30;50.00;;;;;;5056301;28;20024;-68
2022/06/07 07:04:23;;;;;;;1.90;1.73;;;24.30;49.90;;;;;;5073687;28;20200;-69
2022/06/07 07:06:49;;;;;;;4.43;1.90;;;24.30;49.60;;;;;;5073694;28;20131;-68
2022/06/07 07:09:17;;;;;;;1.50;1.40;;;24.40;49.50;;;;;;5074056;28;20029;-69
2022/06/07 07:11:49;;;;;;;2.50;2.30;;;24.40;49.40;;;;;;5055511;28;20029;-71
2022/06/07 07:14:15;;;;;;;3.03;2.58;;;24.40;49.20;;;;;;5073603;28;20033;-68
2022/06/07 07:16:48;;;;;;;1.70;1.55;;;24.40;49.00;;;;;;5055454;28;20035;-68
2022/06/07 07:19:15;;;;;;;2.03;1.83;;;24.50;49.00;;;;;;5073755;28;20348;-66
2022/06/07 07:21:45;;;;;;;1.50;1.30;;;24.50;49.00;;;;;;5055426;28;20526;-68
2022/06/07 07:24:21;;;;;;;1.60;1.42;;;24.50;48.80;;;;;;5073320;28;20031;-69
2022/06/07 07:26:48;;;;;;;1.58;1.48;;;24.50;48.70;;;;;;5073707;28;20033;-68
2022/06/07 07:29:18;;;;;;;2.42;1.50;;;24.50;48.40;;;;;;5073516;28;20024;-69
2022/06/07 07:31:44;;;;;;;1.90;1.38;;;24.60;48.50;;;;;;5039166;28;20028;-68
2022/06/07 07:34:11;;;;;;;1.70;1.60;;;24.60;48.30;;;;;;5073286;28;20040;-67
2022/06/07 07:36:43;;;;;;;1.73;1.48;;;24.60;48.20;;;;;;5055446;28;20029;-68
2022/06/07 07:39:08;;;;;;;1.08;0.98;;;24.60;48.10;;;;;;5055362;28;20049;-68
2022/06/07 07:41:36;;;;;;;1.45;1.35;;;24.60;48.00;;;;;;5073258;28;20028;-68
2022/06/07 07:44:05;;;;;;;1.17;1.08;;;24.60;48.00;;;;;;5073430;28;20037;-68
2022/06/07 07:46:34;;;;;;;1.33;1.23;;;24.60;47.70;;;;;;5075387;28;20032;-69
2022/06/07 07:49:00;;;;;;;1.20;1.13;;;24.60;47.60;;;;;;5077230;28;20028;-68
2022/06/07 07:51:29;;;;;;;2.13;1.40;;;24.60;47.30;;;;;;5077193;28;20429;-67
2022/06/07 07:53:57;;;;;;;0.98;0.98;;;24.60;47.20;;;;;;5059308;28;20052;-68
2022/06/07 07:56:25;;;;;;;2.50;1.38;;;24.70;47.20;;;;;;5077135;28;20029;-68
2022/06/07 07:58:52;;;;;;;0.95;0.95;;;24.70;47.20;;;;;;5077348;28;20478;-68
2022/06/07 08:01:21;;;;;;;2.13;1.00;;;24.70;47.30;;;;;;5058929;28;20028;-68
2022/06/07 08:03:48;;;;;;;1.25;1.17;;;24.70;47.20;;;;;;5077122;28;20048;-68
2022/06/07 08:06:17;;;;;;;1.73;1.00;;;24.70;47.10;;;;;;5077329;28;20124;-67
2022/06/07 08:08:47;;;;;;;0.85;0.85;;;24.70;47.10;;;;;;5059005;28;20103;-67
2022/06/07 08:11:15;;;;;;;2.75;1.15;;;24.70;46.90;;;;;;5076715;28;20021;-68
2022/06/07 08:13:42;;;;;;;0.90;0.90;;;24.70;46.80;;;;;;5058402;28;20047;-68
2022/06/07 08:16:08;;;;;;;1.38;1.13;;;24.70;47.10;;;;;;5076418;28;20024;-67
2022/06/07 08:18:35;;;;;;;1.40;1.30;;;24.70;46.50;;;;;;5077025;28;20067;-68
2022/06/07 08:21:05;;;;;;;1.20;1.10;;;24.70;46.60;;;;;;5076848;28;20032;-68
2022/06/07 08:23:32;;;;;;;0.93;0.90;;;24.70;46.50;;;;;;5058745;28;20028;-67
2022/06/07 08:25:59;;;;;;;1.15;0.90;;;24.70;46.50;;;;;;5076742;28;20041;-67
2022/06/07 08:28:25;;;;;;;0.88;0.88;;;24.80;46.40;;;;;;5076359;28;20110;-68
2022/06/07 08:30:51;;;;;;;1.00;1.00;;;24.80;46.30;;;;;;5058496;28;20532;-70
2022/06/07 08:38:52;;;;;;;1.48;1.38;;;24.80;46.00;;;;;;5076668;28;20091;-67
2022/06/07 08:41:40;;;;;;;1.17;1.17;;;24.80;45.90;;;;;;5076120;28;20029;-67
2022/06/07 08:44:15;;;;;;;1.35;1.13;;;24.80;45.60;;;;;;5058517;28;20485;-68
2022/06/07 08:46:41;;;;;;;1.00;1.00;;;24.80;45.50;;;;;;5058309;28;20035;-68
2022/06/07 08:49:10;;;;;;;1.48;0.93;;;24.90;45.50;;;;;;5076017;28;20112;-68
2022/06/07 08:51:49;;;;;;;1.13;1.13;;;24.90;45.50;;;;;;5076190;28;20352;-68
2022/06/07 08:54:20;;;;;;;1.20;1.10;;;24.90;45.30;;;;;;5058598;28;20049;-69
2022/06/07 08:56:47;;;;;;;1.25;1.15;;;24.90;45.40;;;;;;5076340;28;20097;-69
2022/06/07 08:59:17;;;;;;;1.10;1.10;;;24.90;45.40;;;;;;5074840;28;20067;-69
2022/06/07 09:01:54;;;;;;;3.35;1.13;;;24.90;45.40;;;;;;5057787;28;20029;-69
2022/06/07 09:04:22;;;;;;;1.58;1.17;;;25.00;45.30;;;;;;5076061;28;20024;-71
2022/06/07 09:06:51;;;;;;;2.45;1.10;;;25.00;45.20;;;;;;5075903;28;20032;-69
2022/06/07 09:09:20;;;;;;;1.45;1.20;;;25.00;45.20;;;;;;5076121;28;20028;-68
2022/06/07 09:12:14;;;;;;;2.35;0.90;;;24.90;45.20;;;;;;5075712;28;20024;-69
2022/06/07 09:14:50;;;;;;;1.17;1.17;;;25.00;45.20;;;;;;5075897;28;20033;-68
2022/06/07 09:17:27;;;;;;;1.10;1.00;;;25.00;45.00;;;;;;5076094;28;20020;-68
2022/06/07 09:19:55;;;;;;;2.40;1.15;;;25.00;45.10;;;;;;5075659;28;20469;-68
2022/06/07 09:22:25;;;;;;;0.98;0.95;;;25.00;45.00;;;;;;5057664;28;20024;-67
2022/06/07 09:25:16;;;;;;;1.88;1.00;;;25.00;44.90;;;;;;5075257;28;20517;-68
2022/06/07 09:27:45;;;;;;;1.30;1.10;;;25.10;44.30;;;;;;5075772;28;20028;-69
2022/06/07 09:30:17;;;;;;;1.08;1.00;;;25.10;44.80;;;;;;5057576;28;20387;-68
2022/06/07 09:32:49;;;;;;;0.90;0.90;;;25.10;44.70;;;;;;5075416;28;20024;-68
2022/06/07 09:35:20;;;;;;;1.02;1.00;;;25.10;44.70;;;;;;5075479;28;20032;-69
2022/06/07 09:37:56;;;;;;;2.22;1.10;;;25.20;44.80;;;;;;5075357;28;20024;-68
2022/06/07 09:40:27;;;;;;;1.20;1.20;;;25.20;44.70;;;;;;5075478;28;20550;-68
2022/06/07 09:43:11;;;;;;;1.20;1.20;;;25.20;44.70;;;;;;5075177;28;20032;-66
2022/06/07 09:45:51;;;;;;;1.02;1.00;;;25.20;44.60;;;;;;5074752;28;20478;-68
2022/06/07 09:48:29;;;;;;;1.23;1.10;;;25.20;44.70;;;;;;5057649;28;20090;-68
2022/06/07 09:51:07;;;;;;;1.95;1.30;;;25.30;44.80;;;;;;5057186;28;20024;-67
2022/06/07 09:53:39;;;;;;;1.33;1.10;;;25.30;44.60;;;;;;5057012;28;20065;-66
2022/06/07 09:56:24;;;;;;;0.95;0.95;;;25.30;44.70;;;;;;5075103;28;20024;-68
2022/06/07 09:59:27;;;;;;;1.88;1.00;;;25.30;44.70;;;;;;5057571;28;20115;-69
2022/06/07 10:02:01;;;;;;;1.20;1.20;;;25.30;44.50;;;;;;5074794;28;20099;-68
2022/06/07 10:04:33;;;;;;;1.15;1.05;;;25.40;44.70;;;;;;5074953;28;20025;-68
2022/06/07 10:07:40;;;;;;;1.80;1.27;;;25.40;44.60;;;;;;5075177;28;20044;-69
2022/06/07 10:10:12;;;;;;;2.08;0.95;;;25.40;44.50;;;;;;5042670;28;20514;-68
2022/06/07 10:13:03;;;;;;;1.23;1.13;;;25.40;44.70;;;;;;5074632;28;20078;-69
2022/06/07 10:15:32;;;;;;;1.77;1.10;;;25.40;44.50;;;;;;5056751;28;20032;-68
2022/06/07 10:18:07;;;;;;;2.22;1.17;;;25.40;44.60;;;;;;5074579;28;20028;-67
2022/06/07 10:20:45;;;;;;;0.93;0.93;;;25.40;44.50;;;;;;5074584;28;20174;-69
2022/06/07 10:23:43;;;;;;;3.60;1.10;;;25.40;44.50;;;;;;5056590;28;20052;-69
2022/06/07 10:26:42;;;;;;;1.40;1.30;;;25.40;44.50;;;;;;5063197;28;20076;-68
2022/06/07 10:29:26;;;;;;;0.80;0.80;;;25.40;44.50;;;;;;5074266;28;20103;-68
2022/06/07 10:31:59;;;;;;;1.17;1.07;;;25.50;44.60;;;;;;5074500;28;20028;-69
2022/06/07 10:34:36;;;;;;;0.85;0.85;;;25.50;44.70;;;;;;5074433;28;20245;-68
2022/06/07 10:37:32;;;;;;;1.98;1.00;;;25.50;44.70;;;;;;5074377;28;20078;-68
2022/06/07 10:40:21;;;;;;;2.10;1.10;;;25.50;44.60;;;;;;5074070;28;20074;-69
2022/06/07 10:42:47;;;;;;;1.42;1.05;;;25.50;44.50;;;;;;5056577;28;20025;-68
2022/06/07 10:45:39;;;;;;;2.70;1.13;;;25.50;44.60;;;;;;5074073;28;20520;-67
2022/06/07 10:48:09;;;;;;;0.85;0.85;;;25.50;44.40;;;;;;5070278;28;20032;-69
2022/06/07 10:50:39;;;;;;;0.90;0.90;;;25.60;44.60;;;;;;5056456;28;20027;-69
2022/06/07 10:53:29;;;;;;;2.78;1.08;;;25.60;44.70;;;;;;5073874;28;20031;-68
2022/06/07 10:55:59;;;;;;;0.90;0.90;;;25.60;44.40;;;;;;5073835;28;20028;-68
2022/06/07 10:58:33;;;;;;;0.82;0.82;;;25.70;44.60;;;;;;5073591;28;20028;-70
2022/06/07 11:01:18;;;;;;;1.20;1.10;;;25.70;44.50;;;;;;5073861;28;20032;-68
2022/06/07 11:03:52;;;;;;;0.90;0.90;;;25.70;44.40;;;;;;5073797;28;20025;-68
2022/06/07 11:09:23;;;;;;;1.13;1.02;;;25.70;45.00;;;;;;5073459;28;20066;-68
2022/06/07 11:11:56;;;;;;;2.10;1.88;;;25.70;44.40;;;;;;5056106;28;20036;-68
2022/06/07 11:14:58;;;;;;;1.45;1.35;;;25.70;44.40;;;;;;5055998;28;20071;-68
2022/06/07 11:17:45;;;;;;;2.28;1.50;;;25.80;44.30;;;;;;5073657;28;20025;-68
2022/06/07 11:20:24;;;;;;;1.40;1.30;;;25.80;44.40;;;;;;5073615;28;20017;-68
2022/06/07 11:23:13;;;;;;;2.25;1.20;;;25.80;44.40;;;;;;5055836;28;20381;-68
2022/06/07 11:25:42;;;;;;;1.55;1.00;;;25.80;44.40;;;;;;5073506;28;20035;-68
2022/06/07 11:28:15;;;;;;;0.80;0.80;;;25.90;44.50;;;;;;5073668;28;20017;-69
2022/06/07 11:30:43;;;;;;;0.90;0.90;;;25.90;44.30;;;;;;5073813;28;20024;-68
2022/06/07 11:33:28;;;;;;;1.55;1.45;;;25.90;44.30;;;;;;5073524;28;20078;-68
2022/06/07 11:36:12;;;;;;;1.20;1.10;;;25.90;43.50;;;;;;5073318;28;20051;-69
2022/06/07 11:38:56;;;;;;;;;;;25.90;44.20;;;;;;5073774;28;20124;-69
2022/06/07 11:41:36;;;;;;;1.75;1.02;;;25.90;43.80;;;;;;5073400;28;19940;-68
2022/06/07 11:44:04;;;;;;;3.47;1.00;;;25.90;44.20;;;;;;5073346;28;20035;-68
2022/06/07 11:46:33;;;;;;;1.25;1.10;;;25.90;44.20;;;;;;5073291;28;20044;-68
2022/06/07 11:49:20;;;;;;;0.88;0.88;;;25.90;44.10;;;;;;5073348;28;20371;-70
2022/06/07 11:52:19;;;;;;;1.55;0.95;;;25.90;44.10;;;;;;5055862;28;20451;-69
2022/06/07 11:54:45;;;;;;;1.13;0.90;;;26.00;43.90;;;;;;5073136;28;20025;-68
2022/06/07 11:57:29;;;;;;;1.00;1.00;;;26.00;44.10;;;;;;5073406;28;20028;-71
2022/06/07 12:00:21;;;;;;;0.90;0.90;;;26.00;44.00;;;;;;5055371;28;20069;-68
2022/06/07 12:03:06;;;;;;;2.53;1.20;;;26.10;43.90;;;;;;5035626;28;20162;-69
2022/06/07 12:06:04;;;;;;;1.30;1.08;;;26.10;43.90;;;;;;5073522;28;20036;-71
2022/06/07 12:08:42;;;;;;;2.55;0.90;;;26.10;43.90;;;;;;5073121;28;20029;-68
2022/06/07 12:11:20;;;;;;;2.05;1.17;;;26.10;43.90;;;;;;5073411;28;20036;-68
2022/06/07 12:14:17;;;;;;;2.17;0.93;;;26.20;43.90;;;;;;5073207;28;20107;-67
2022/06/07 12:16:53;;;;;;;2.28;1.13;;;26.20;43.80;;;;;;5073219;28;20033;-68
2022/06/07 12:19:25;;;;;;;1.38;0.93;;;26.20;43.80;;;;;;5073292;28;20029;-69
2022/06/07 12:22:05;;;;;;;1.00;1.00;;;26.30;43.80;;;;;;5073045;28;20025;-70
2022/06/07 12:25:10;;;;;;;1.20;0.95;;;26.30;43.60;;;;;;5072835;28;20020;-68
2022/06/07 12:27:49;;;;;;;1.90;0.90;;;26.40;43.50;;;;;;5054940;28;20127;-69
2022/06/07 12:30:31;;;;;;;3.25;0.90;;;26.40;43.70;;;;;;5072803;28;20074;-68
2022/06/07 12:33:21;;;;;;;2.15;1.10;;;26.50;43.40;;;;;;5073980;28;20107;-69
2022/06/07 12:35:59;;;;;;;1.00;1.00;;;26.60;43.50;;;;;;5058675;28;20025;-69
2022/06/07 12:38:25;;;;;;;4.25;1.13;;;26.60;43.50;;;;;;5076450;28;20151;-69
2022/06/07 12:40:55;;;;;;;1.15;0.70;;;26.70;43.50;;;;;;5076166;28;20035;-68
2022/06/07 12:43:29;;;;;;;0.80;0.80;;;26.80;43.50;;;;;;5058465;28;20472;-69
2022/06/07 12:46:03;;;;;;;1.02;0.93;;;26.80;43.30;;;;;;5076213;28;20063;-68
2022/06/07 12:48:38;;;;;;;0.90;0.90;;;26.90;43.20;;;;;;5058596;28;20032;-68
2022/06/07 12:51:18;;;;;;;1.27;1.17;;;27.00;43.20;;;;;;5042365;28;20064;-68
2022/06/07 12:53:48;;;;;;;2.17;1.50;;;27.10;42.70;;;;;;5076369;28;20467;-67
2022/06/07 12:56:17;;;;;;;3.75;1.30;;;27.10;43.00;;;;;;5058380;28;20374;-66
2022/06/07 12:58:48;;;;;;;1.20;1.10;;;27.30;43.00;;;;;;5076184;28;20020;-68
2022/06/07 13:01:41;;;;;;;2.35;1.30;;;27.40;43.00;;;;;;5058342;28;20538;-67
2022/06/07 13:04:24;;;;;;;1.20;1.10;;;27.50;42.50;;;;;;5072855;28;20089;-70
2022/06/07 13:07:00;;;;;;;0.90;0.90;;;27.50;42.70;;;;;;5075830;28;20532;-68
2022/06/07 13:09:26;;;;;;;1.00;1.00;;;27.60;42.60;;;;;;5076322;28;20038;-68
2022/06/07 13:11:52;;;;;;;1.10;1.10;;;27.70;42.60;;;;;;5075751;28;20481;-68
2022/06/07 13:14:19;;;;;;;1.23;1.13;;;27.80;42.50;;;;;;5075843;28;20111;-69
2022/06/07 13:16:46;;;;;;;7.55;6.15;;;27.90;42.50;;;;;;5057908;28;20058;-69
2022/06/07 13:19:12;;;;;;;2.20;2.00;;;28.10;42.30;;;;;;5058025;28;20431;-66
2022/06/07 13:22:00;;;;;;;2.13;1.90;;;28.30;42.30;;;;;;5075794;28;20108;-69
2022/06/07 13:24:34;;;;;;;2.65;1.70;;;28.60;42.10;;;;;;5061598;28;20135;-69
2022/06/07 13:27:03;;;;;;;1.80;1.48;;;29.00;41.90;;;;;;5057552;28;20029;-68